Etusivu
METAR-TAF:

METAR-TAF

Lentoasemat :

Stewart, Brittiläinen Kolumbia, Kanada

Leveyspiiri: 55-56N, Pituuspiiri: 129-59W, korkeus merenpinnasta: 7 m

Tämänhetkinen sää

Tämä raportti tehtiin 6 tuntia ja 2 minuuttia sitten, kello 01.00 UTC
Tuuli 2 kn eri suunnista
Lämpötila 8°C
Kosteus 100%
Ilmanpaine 1011 hPa
Näkyvyys: 16.1 km
Muutamia pilviä 700 ft:n korkeudessa
Pilvistä 6000 ft:n korkeudessa

METAR: CZST 230100Z VRB02KT 10SM FEW007 OVC060 08/08 A2984 RMK SC1SC7 LAST STFD OBS/NEXT 231300Z/ SLP105

Aika: 00:02 (07:02 UTC)


TAF: puuttuu

Säähavainnot ja -ennusteet yli 4000 lentoasemalta (METAR- ja TAF-raportit).

Käytössä olevat sääasemat on merkitty karttaan keltaisilla ja punaisilla pisteillä.

Aseta hiiri pisteen päälle nähdäksesi sääaseman nimen.

Klikkaa sitten nähdäksesi säähavainnot ja -ennusteet.

Kartan vaihtaminen: klikkaa mustalla rastilla varustettuja vihreitä pisteitä, niin voit zoomata sisään; viivalla varustettua vihreää pistettä, niin voit zoomata ulos tai vihreitä nuolia, niin pääset viereisille kartoille.


METAR-TAF: